Alpine, Wyoming
Current Conditions -  °F | °C
As of 11:35 AM on Saturday 25 Oct 2014 (Local Time) from KAFO Reporting Station
Clear Clear  
Wind Chill: 55°   Ceiling: Unl
Heat Index: 55°   Visibility: 10mi
Dew Point: 34°   Wind: 5mph
Humidity: 44%   Direction: 280°W
Pressure: 30.12"   Gusts: NA
Location:  43.18°N, 111.03°W
Report Text: KAFO 251735Z AUTO 28004KT 10SM CLR 13/01 A3012 RMK AO2
Loading
Personal Weather Stations






























Interactive Weather Map New forecast layout! Learn more

10-Day Weather Forecast

Advertisements
Track Severe Weather on mobile